Time;durP1;ratioP1;P1;durP2;ratioP2;P2;SDS_P1;SDS_P2;PMS_P1;PMS_P2;Temp;Humidity;BMP_temperature;BMP_pressure;BME280_temperature;BME280_humidity;BME280_pressure;Samples;Min_cycle;Max_cycle;Signal;HPM_P1;HPM_P2
2022/09/15 00:02:12;;;;;;;23.50;16.30;;;15.50;99.90;;;;;;5035595;28;20056;-80
2022/09/15 00:04:37;;;;;;;23.52;14.73;;;15.50;99.90;;;;;;5036425;28;20394;-80
2022/09/15 00:07:03;;;;;;;26.55;15.70;;;15.40;99.90;;;;;;5036767;28;20023;-80
2022/09/15 00:09:28;;;;;;;26.15;15.18;;;15.40;99.90;;;;;;5036676;28;20102;-80
2022/09/15 00:11:54;;;;;;;23.05;15.05;;;15.40;99.90;;;;;;5035488;28;20025;-80
2022/09/15 00:14:19;;;;;;;20.98;15.23;;;15.40;99.90;;;;;;5036526;28;20041;-80
2022/09/15 00:16:45;;;;;;;23.42;15.40;;;15.40;99.90;;;;;;5036653;28;20025;-80
2022/09/15 00:19:11;;;;;;;25.30;17.17;;;15.40;99.90;;;;;;5047026;28;20406;-80
2022/09/15 00:21:39;;;;;;;25.05;16.45;;;15.40;99.90;;;;;;5054951;28;20028;-80
2022/09/15 00:24:06;;;;;;;25.27;15.55;;;15.40;99.90;;;;;;5055287;28;20025;-80
2022/09/15 00:26:31;;;;;;;25.38;16.35;;;15.40;99.90;;;;;;5056510;28;20401;-80
2022/09/15 00:28:58;;;;;;;26.13;14.45;;;15.40;99.90;;;;;;5056532;28;20024;-81
2022/09/15 00:31:26;;;;;;;25.67;15.25;;;15.40;99.90;;;;;;5056405;28;20493;-80
2022/09/15 00:33:55;;;;;;;22.38;15.00;;;15.40;99.90;;;;;;5055061;28;20062;-80
2022/09/15 00:36:22;;;;;;;23.63;15.27;;;15.40;99.90;;;;;;5056381;28;20393;-79
2022/09/15 00:38:48;;;;;;;22.83;16.15;;;15.40;99.90;;;;;;5055017;27;20025;-79
2022/09/15 00:41:16;;;;;;;27.75;14.82;;;15.40;99.90;;;;;;5056316;28;20100;-80
2022/09/15 00:43:49;;;;;;;26.92;16.33;;;15.40;99.90;;;;;;5056125;27;20040;-81
2022/09/15 00:46:17;;;;;;;26.98;17.55;;;15.40;99.90;;;;;;5055074;28;20024;-79
2022/09/15 00:48:50;;;;;;;23.52;16.48;;;15.40;99.90;;;;;;5056356;28;20069;-80
2022/09/15 00:51:19;;;;;;;29.00;19.25;;;15.40;99.90;;;;;;5056372;28;20021;-79
2022/09/15 00:53:47;;;;;;;28.75;19.30;;;15.40;99.90;;;;;;5056066;28;20386;-80
2022/09/15 00:56:14;;;;;;;29.17;19.42;;;15.40;99.90;;;;;;5054970;28;20562;-80
2022/09/15 00:58:51;;;;;;;30.52;20.65;;;15.30;99.90;;;;;;5054845;28;20037;-80
2022/09/15 01:01:17;;;;;;;37.33;23.20;;;15.30;99.90;;;;;;5054701;28;20040;-80
2022/09/15 01:03:43;;;;;;;37.70;21.80;;;15.30;99.90;;;;;;5054800;28;20077;-80
2022/09/15 01:06:14;;;;;;;34.97;22.83;;;15.40;99.90;;;;;;5054674;28;20064;-80
2022/09/15 01:09:06;;;;;;;37.55;23.25;;;15.30;99.90;;;;;;5052597;28;20025;-81
2022/09/15 01:11:32;;;;;;;39.13;22.77;;;15.30;99.90;;;;;;5043159;28;20485;-80
2022/09/15 01:13:58;;;;;;;35.85;22.30;;;15.30;99.90;;;;;;5032679;28;20033;-81
2022/09/15 01:16:40;;;;;;;31.35;20.40;;;15.30;99.90;;;;;;5031352;28;20056;-80
2022/09/15 01:19:39;;;;;;;43.25;23.75;;;15.30;99.90;;;;;;5042881;28;20091;-81
2022/09/15 01:22:16;;;;;;;34.63;21.63;;;15.40;99.90;;;;;;5052855;28;20108;-79
2022/09/15 01:25:05;;;;;;;37.95;22.90;;;15.40;99.90;;;;;;5051137;28;20071;-80
2022/09/15 01:27:33;;;;;;;44.40;22.40;;;15.40;99.90;;;;;;5051150;28;20031;-79
2022/09/15 01:30:05;;;;;;;45.45;24.75;;;15.40;99.90;;;;;;5052259;28;20081;-80
2022/09/15 01:33:03;;;;;;;40.88;23.83;;;15.30;99.90;;;;;;5051068;28;20479;-80
2022/09/15 01:35:38;;;;;;;39.65;22.23;;;15.30;99.90;;;;;;5052248;28;20029;-81
2022/09/15 01:38:10;;;;;;;39.70;23.02;;;15.30;99.90;;;;;;5050986;28;20025;-80
2022/09/15 01:40:41;;;;;;;36.07;22.50;;;15.40;99.90;;;;;;5052222;28;20022;-80
2022/09/15 01:43:09;;;;;;;37.97;21.83;;;15.30;99.90;;;;;;5050950;28;20041;-80
2022/09/15 01:45:37;;;;;;;46.13;26.17;;;15.40;99.90;;;;;;5047711;28;20044;-79
2022/09/15 01:48:06;;;;;;;40.65;23.38;;;15.30;99.90;;;;;;5032186;28;20034;-81
2022/09/15 01:50:40;;;;;;;38.00;22.08;;;15.30;99.90;;;;;;5032234;28;20022;-80
2022/09/15 01:53:13;;;;;;;39.17;23.25;;;15.30;99.90;;;;;;5030971;28;20026;-80
2022/09/15 01:55:40;;;;;;;;;;;15.30;99.90;;;;;;5031302;28;20570;-80
2022/09/15 01:58:06;;;;;;;37.40;22.77;;;15.30;99.90;;;;;;5030838;28;20437;-80
2022/09/15 02:00:37;;;;;;;44.63;27.05;;;15.30;99.90;;;;;;5030524;28;20055;-80
2022/09/15 02:03:16;;;;;;;46.65;25.90;;;15.30;99.90;;;;;;5030685;28;20489;-81
2022/09/15 02:05:50;;;;;;;46.50;28.15;;;15.30;99.90;;;;;;5032071;28;20103;-80
2022/09/15 02:08:41;;;;;;;44.28;26.42;;;15.20;99.90;;;;;;5030834;28;20087;-80
2022/09/15 02:11:25;;;;;;;44.47;26.90;;;15.20;99.90;;;;;;5031919;28;20404;-79
2022/09/15 02:14:19;;;;;;;42.22;28.42;;;15.20;99.90;;;;;;5030494;28;20062;-80
2022/09/15 02:16:48;;;;;;;55.33;33.20;;;15.30;99.90;;;;;;5030441;28;20018;-80
2022/09/15 02:19:14;;;;;;;51.03;30.70;;;15.20;99.90;;;;;;5042213;28;20380;-80
2022/09/15 02:21:58;;;;;;;48.58;28.77;;;15.20;99.90;;;;;;5051402;28;20021;-80
2022/09/15 02:24:31;;;;;;;48.33;26.35;;;15.20;99.90;;;;;;5050350;28;20029;-79
2022/09/15 02:26:59;;;;;;;42.00;24.95;;;15.20;99.90;;;;;;5051468;28;20049;-80
2022/09/15 02:29:26;;;;;;;40.30;24.70;;;15.20;99.90;;;;;;5050230;28;20017;-80
2022/09/15 02:31:56;;;;;;;40.92;24.33;;;15.20;99.90;;;;;;5050156;28;20046;-80
2022/09/15 02:34:29;;;;;;;41.25;26.15;;;15.20;99.90;;;;;;5051338;28;20033;-79
2022/09/15 02:36:56;;;;;;;44.72;25.90;;;15.20;99.90;;;;;;5049983;28;20032;-80
2022/09/15 02:39:29;;;;;;;45.80;26.80;;;15.10;99.90;;;;;;5051357;28;20378;-79
2022/09/15 02:41:55;;;;;;;46.20;28.13;;;15.20;99.90;;;;;;5051286;28;20021;-79
2022/09/15 02:44:21;;;;;;;49.67;30.95;;;15.20;99.90;;;;;;5051230;28;20562;-80
2022/09/15 02:46:46;;;;;;;43.10;29.70;;;15.10;99.90;;;;;;5037698;28;20025;-80
2022/09/15 02:49:13;;;;;;;45.88;28.27;;;15.10;99.90;;;;;;5031292;28;20029;-79
2022/09/15 02:51:38;;;;;;;47.05;30.20;;;15.10;99.90;;;;;;5031138;28;20099;-80
2022/09/15 02:54:04;;;;;;;43.50;28.08;;;15.10;99.90;;;;;;5031067;28;20037;-79
2022/09/15 02:56:30;;;;;;;46.53;28.48;;;15.10;99.90;;;;;;5031110;28;20483;-79
2022/09/15 02:58:55;;;;;;;44.03;30.52;;;15.10;99.90;;;;;;5029791;28;20491;-80
2022/09/15 03:01:30;;;;;;;49.28;32.28;;;15.10;99.90;;;;;;5031037;28;20029;-79
2022/09/15 03:03:57;;;;;;;49.03;30.05;;;15.10;99.90;;;;;;5029845;28;20026;-81
2022/09/15 03:06:23;;;;;;;46.08;29.95;;;15.10;99.90;;;;;;5031007;28;20025;-80
2022/09/15 03:08:55;;;;;;;45.88;31.75;;;15.10;99.90;;;;;;5029780;28;20022;-81
2022/09/15 03:11:22;;;;;;;50.35;30.50;;;15.00;99.90;;;;;;5029708;28;20031;-80
2022/09/15 03:13:53;;;;;;;49.22;31.80;;;15.00;99.90;;;;;;5030765;28;20037;-80
2022/09/15 03:16:19;;;;;;;49.80;31.42;;;15.00;99.90;;;;;;5029933;28;20022;-79
2022/09/15 03:18:44;;;;;;;42.03;28.65;;;15.00;99.90;;;;;;5037396;28;20017;-80
2022/09/15 03:21:12;;;;;;;56.00;33.70;;;15.00;99.90;;;;;;5050682;28;20381;-80
2022/09/15 03:23:39;;;;;;;52.30;32.83;;;15.00;99.90;;;;;;5049315;28;20398;-80
2022/09/15 03:26:05;;;;;;;48.00;29.13;;;15.00;99.90;;;;;;5050603;28;20021;-81
2022/09/15 03:28:31;;;;;;;43.97;30.70;;;15.00;99.90;;;;;;5049150;28;20085;-81
2022/09/15 03:30:57;;;;;;;48.15;30.17;;;15.00;99.90;;;;;;5048801;28;20108;-80
2022/09/15 03:33:23;;;;;;;47.28;29.38;;;15.00;99.90;;;;;;5050394;28;20090;-80
2022/09/15 03:35:50;;;;;;;52.53;31.08;;;15.00;99.90;;;;;;5049248;28;20025;-80
2022/09/15 03:38:16;;;;;;;45.85;30.38;;;15.00;99.90;;;;;;5050316;28;20115;-81
2022/09/15 03:40:43;;;;;;;48.25;30.67;;;15.00;99.90;;;;;;5050486;28;20096;-79
2022/09/15 03:43:09;;;;;;;46.00;28.55;;;15.00;99.90;;;;;;5049081;28;20036;-79
2022/09/15 03:45:39;;;;;;;53.33;30.23;;;15.00;99.90;;;;;;5045334;28;20486;-81
2022/09/15 03:48:05;;;;;;;45.15;27.38;;;15.00;99.90;;;;;;5030674;28;20021;-80
2022/09/15 03:50:32;;;;;;;46.28;29.42;;;15.00;99.90;;;;;;5029107;28;20026;-80
2022/09/15 03:53:01;;;;;;;39.45;26.75;;;15.00;99.90;;;;;;5030249;28;20542;-79
2022/09/15 03:55:28;;;;;;;36.28;25.08;;;15.00;99.90;;;;;;5029129;28;20553;-79
2022/09/15 03:57:54;;;;;;;40.40;26.98;;;15.00;99.90;;;;;;5030267;28;20022;-80
2022/09/15 04:00:20;;;;;;;38.22;25.73;;;15.10;99.90;;;;;;5030430;28;20057;-80
2022/09/15 04:02:46;;;;;;;40.40;26.83;;;15.00;99.90;;;;;;5028958;28;20057;-80
2022/09/15 04:05:12;;;;;;;35.10;25.42;;;15.10;99.90;;;;;;5028921;28;20060;-79
2022/09/15 04:07:41;;;;;;;40.80;25.42;;;15.10;99.90;;;;;;5028995;28;20170;-82
2022/09/15 04:10:07;;;;;;;37.55;25.85;;;15.10;99.90;;;;;;5030167;28;20107;-80
2022/09/15 04:12:34;;;;;;;38.63;24.92;;;15.10;99.90;;;;;;5030043;28;20474;-81
2022/09/15 04:15:00;;;;;;;38.85;26.67;;;15.10;99.90;;;;;;5028727;28;20093;-81
2022/09/15 04:17:26;;;;;;;46.30;26.65;;;15.10;99.90;;;;;;5029991;28;20037;-80
2022/09/15 04:19:52;;;;;;;37.63;24.98;;;15.10;99.90;;;;;;5046017;28;20423;-81
2022/09/15 04:22:18;;;;;;;33.60;23.48;;;15.10;99.90;;;;;;5049859;28;20105;-81
2022/09/15 04:24:44;;;;;;;32.50;22.77;;;15.10;99.90;;;;;;5049916;28;20021;-80
2022/09/15 04:27:10;;;;;;;32.80;22.35;;;15.10;99.90;;;;;;5048599;28;20482;-80
2022/09/15 04:29:35;;;;;;;31.15;22.50;;;15.10;99.90;;;;;;5049727;28;20100;-80
2022/09/15 04:32:01;;;;;;;36.13;23.90;;;15.10;99.90;;;;;;5049908;28;20033;-80
2022/09/15 04:34:26;;;;;;;36.78;24.90;;;15.10;99.90;;;;;;5050090;28;20037;-80
2022/09/15 04:36:52;;;;;;;35.95;22.27;;;15.10;99.90;;;;;;5049706;28;20078;-80
2022/09/15 04:39:18;;;;;;;32.90;22.85;;;15.10;99.90;;;;;;5048296;28;20093;-80
2022/09/15 04:41:44;;;;;;;35.63;22.48;;;15.10;99.90;;;;;;5048454;28;20025;-80
2022/09/15 04:44:10;;;;;;;33.58;22.27;;;15.10;99.90;;;;;;5050953;28;20028;-81
2022/09/15 04:46:35;;;;;;;32.45;24.00;;;15.10;99.90;;;;;;5039278;28;20055;-80
2022/09/15 04:49:01;;;;;;;37.67;25.70;;;15.10;99.90;;;;;;5049528;28;20506;-79
2022/09/15 04:51:27;;;;;;;36.53;26.13;;;15.20;99.90;;;;;;5052950;28;20028;-80
2022/09/15 04:53:52;;;;;;;37.40;24.75;;;15.20;99.90;;;;;;5052643;28;20029;-79
2022/09/15 04:56:24;;;;;;;38.13;24.83;;;15.20;99.90;;;;;;5051568;28;20522;-79
2022/09/15 04:58:55;;;;;;;40.83;26.80;;;15.20;99.90;;;;;;5051079;28;20078;-78
2022/09/15 05:01:24;;;;;;;38.03;27.05;;;15.20;99.90;;;;;;5052567;28;20312;-78
2022/09/15 05:03:50;;;;;;;40.65;26.13;;;15.20;99.90;;;;;;5052610;28;20021;-79
2022/09/15 05:06:18;;;;;;;43.45;28.10;;;15.20;99.90;;;;;;5052717;28;20021;-77
2022/09/15 05:08:49;;;;;;;45.40;30.30;;;15.20;99.90;;;;;;5051371;28;20481;-79
2022/09/15 05:11:15;;;;;;;45.72;29.25;;;15.20;99.90;;;;;;5051411;28;20055;-81
2022/09/15 05:13:41;;;;;;;34.90;23.45;;;15.20;99.90;;;;;;5052765;28;20021;-79
2022/09/15 05:16:10;;;;;;;18.08;13.38;;;15.20;99.90;;;;;;5053978;28;20036;-82
2022/09/15 05:18:36;;;;;;;14.93;10.32;;;15.10;99.90;;;;;;5044840;28;20029;-82
2022/09/15 05:21:04;;;;;;;4.30;2.40;;;15.10;99.90;;;;;;5033336;28;20034;-78
2022/09/15 05:23:32;;;;;;;2.58;1.52;;;14.90;99.90;;;;;;5029976;28;20021;-82
2022/09/15 05:25:59;;;;;;;4.28;3.47;;;14.80;99.90;;;;;;5032860;28;20066;-78
2022/09/15 05:28:26;;;;;;;1.05;0.70;;;14.80;99.90;;;;;;5030293;28;20026;-78
2022/09/15 05:30:53;;;;;;;1.80;1.70;;;14.60;99.90;;;;;;5031013;28;20074;-82
2022/09/15 05:33:20;;;;;;;0.60;0.60;;;14.60;99.90;;;;;;5032481;28;20021;-78
2022/09/15 05:35:54;;;;;;;1.60;0.65;;;14.50;99.90;;;;;;5030001;28;20494;-74
2022/09/15 05:38:20;;;;;;;0.38;0.38;;;14.50;99.90;;;;;;5030038;28;20037;-73
2022/09/15 05:40:46;;;;;;;0.98;0.73;;;14.50;99.90;;;;;;5030211;28;20045;-74
2022/09/15 05:43:12;;;;;;;0.35;0.35;;;14.40;99.90;;;;;;5029051;28;20052;-74
2022/09/15 05:45:40;;;;;;;0.85;0.73;;;14.40;99.90;;;;;;5033789;28;20050;-74
2022/09/15 05:48:05;;;;;;;1.60;0.73;;;14.40;99.90;;;;;;5050191;28;20065;-73
2022/09/15 05:50:31;;;;;;;0.30;0.30;;;14.40;99.90;;;;;;5050983;28;20029;-74
2022/09/15 05:52:57;;;;;;;2.15;0.50;;;14.40;99.90;;;;;;5050048;28;20029;-73
2022/09/15 05:55:22;;;;;;;0.40;0.40;;;14.40;99.90;;;;;;5049617;28;20037;-75
2022/09/15 05:57:48;;;;;;;0.60;0.60;;;14.30;99.90;;;;;;5050183;28;20017;-74
2022/09/15 06:00:14;;;;;;;0.90;0.60;;;14.20;99.90;;;;;;5051522;28;20053;-74
2022/09/15 06:02:39;;;;;;;0.60;0.60;;;14.20;99.90;;;;;;5052155;28;20098;-74
2022/09/15 06:05:05;;;;;;;0.70;0.70;;;14.10;99.90;;;;;;5051944;28;20100;-73
2022/09/15 06:07:31;;;;;;;1.00;0.80;;;14.00;99.90;;;;;;5052130;28;20100;-75
2022/09/15 06:09:57;;;;;;;1.27;1.17;;;14.00;99.90;;;;;;5050593;28;20423;-73
2022/09/15 06:12:22;;;;;;;0.95;0.85;;;13.90;99.90;;;;;;5050639;28;20032;-74
2022/09/15 06:14:49;;;;;;;1.25;1.10;;;13.80;99.90;;;;;;5050473;28;20120;-74
2022/09/15 06:17:16;;;;;;;1.80;0.93;;;13.70;99.90;;;;;;5051964;28;20070;-75
2022/09/15 06:19:42;;;;;;;1.33;1.10;;;13.70;99.90;;;;;;5035031;28;20029;-73
2022/09/15 06:22:07;;;;;;;1.40;1.00;;;13.60;99.90;;;;;;5032022;28;20105;-75
2022/09/15 06:24:33;;;;;;;1.75;1.40;;;13.60;99.90;;;;;;5030484;28;20128;-73
2022/09/15 06:26:59;;;;;;;1.48;1.38;;;13.60;99.90;;;;;;5031931;28;20029;-75
2022/09/15 06:29:25;;;;;;;2.63;1.73;;;13.60;99.90;;;;;;5031681;28;20021;-74
2022/09/15 06:31:50;;;;;;;2.30;1.75;;;13.60;99.90;;;;;;5031817;28;20014;-73
2022/09/15 06:34:17;;;;;;;1.73;1.63;;;13.60;99.90;;;;;;5030149;28;20086;-73
2022/09/15 06:36:42;;;;;;;1.48;1.38;;;13.60;99.90;;;;;;5031675;28;20021;-74
2022/09/15 06:39:08;;;;;;;2.15;1.60;;;13.60;99.90;;;;;;5030263;28;20081;-75
2022/09/15 06:41:34;;;;;;;2.15;1.70;;;13.60;99.90;;;;;;5030389;28;20083;-75
2022/09/15 06:44:00;;;;;;;1.52;1.42;;;13.70;99.90;;;;;;5031385;28;20030;-73
2022/09/15 06:46:27;;;;;;;1.65;1.55;;;13.70;99.90;;;;;;5043230;28;20017;-74
2022/09/15 06:48:53;;;;;;;1.50;1.40;;;13.70;99.90;;;;;;5051403;28;20029;-74
2022/09/15 06:51:21;;;;;;;1.73;1.63;;;13.70;99.90;;;;;;5050309;28;20486;-74
2022/09/15 06:53:47;;;;;;;1.63;1.40;;;13.70;99.90;;;;;;5050013;28;20493;-74
2022/09/15 06:56:18;;;;;;;1.83;1.67;;;13.80;99.90;;;;;;5049954;28;20132;-75
2022/09/15 06:58:44;;;;;;;1.98;1.77;;;13.80;99.90;;;;;;5049953;28;20424;-74
2022/09/15 07:01:12;;;;;;;2.25;1.70;;;13.90;99.90;;;;;;5051245;28;20025;-73
2022/09/15 07:03:41;;;;;;;1.58;1.48;;;14.00;99.90;;;;;;5049911;28;20029;-74
2022/09/15 07:06:07;;;;;;;1.50;1.40;;;14.00;99.90;;;;;;5050254;28;20055;-75
2022/09/15 07:08:33;;;;;;;2.17;2.03;;;14.10;99.90;;;;;;5051127;28;20026;-73
2022/09/15 07:10:59;;;;;;;2.70;2.47;;;14.10;99.90;;;;;;5047392;28;20086;-73
2022/09/15 07:13:25;;;;;;;2.35;2.15;;;14.20;99.90;;;;;;5031114;28;20029;-75
2022/09/15 07:15:56;;;;;;;2.15;1.90;;;14.20;99.90;;;;;;5030891;28;20566;-74
2022/09/15 07:18:22;;;;;;;2.50;2.30;;;14.20;99.90;;;;;;5035741;28;20033;-73
2022/09/15 07:20:48;;;;;;;2.38;2.17;;;14.30;99.90;;;;;;5050843;28;20037;-75
2022/09/15 07:23:14;;;;;;;2.30;2.10;;;14.40;99.90;;;;;;5050887;28;20028;-75
2022/09/15 07:25:42;;;;;;;2.47;2.13;;;14.40;99.90;;;;;;5050751;28;20021;-74
2022/09/15 07:28:09;;;;;;;3.28;2.72;;;14.50;99.90;;;;;;5049662;28;20019;-74
2022/09/15 07:30:35;;;;;;;2.58;2.38;;;14.60;99.90;;;;;;5049511;28;20044;-74
2022/09/15 07:33:00;;;;;;;3.83;3.45;;;14.60;99.90;;;;;;5050850;28;20470;-73
2022/09/15 07:35:26;;;;;;;2.40;2.20;;;14.80;99.90;;;;;;5050612;28;20082;-74
2022/09/15 07:37:52;;;;;;;2.00;1.80;;;14.80;99.90;;;;;;5049501;28;20565;-74
2022/09/15 07:40:17;;;;;;;3.67;2.25;;;14.80;99.90;;;;;;5049288;28;20040;-73
2022/09/15 07:42:43;;;;;;;2.50;2.30;;;14.90;99.90;;;;;;5050847;28;20100;-74
2022/09/15 07:45:10;;;;;;;2.90;1.80;;;14.90;99.90;;;;;;5047639;28;20029;-75
2022/09/15 07:47:36;;;;;;;2.05;1.85;;;15.00;99.90;;;;;;5029556;28;20018;-75
2022/09/15 07:50:02;;;;;;;1.67;1.58;;;15.00;99.90;;;;;;5030535;28;20036;-73
2022/09/15 07:52:29;;;;;;;2.05;1.85;;;15.00;99.90;;;;;;5030668;28;20021;-75
2022/09/15 07:54:55;;;;;;;1.90;1.55;;;15.10;99.90;;;;;;5030487;28;20029;-75
2022/09/15 07:57:20;;;;;;;1.88;1.77;;;15.10;99.90;;;;;;5030603;28;20021;-75
2022/09/15 07:59:46;;;;;;;1.63;1.52;;;15.20;99.90;;;;;;5029319;28;20101;-74
2022/09/15 08:02:16;;;;;;;1.65;1.55;;;15.30;99.90;;;;;;5030480;28;20069;-74
2022/09/15 08:04:43;;;;;;;2.00;1.70;;;15.30;99.90;;;;;;5030514;28;20451;-74
2022/09/15 08:07:09;;;;;;;1.75;1.40;;;15.40;99.90;;;;;;5030403;28;20445;-74
2022/09/15 08:09:36;;;;;;;2.33;1.50;;;15.50;99.90;;;;;;5030303;28;20033;-73
2022/09/15 08:12:03;;;;;;;2.88;2.63;;;15.60;99.90;;;;;;5030405;28;20029;-73
2022/09/15 08:14:30;;;;;;;2.17;2.03;;;15.70;99.90;;;;;;5030161;28;20121;-73
2022/09/15 08:16:59;;;;;;;1.95;1.80;;;15.70;99.90;;;;;;5031229;28;20097;-73
2022/09/15 08:19:26;;;;;;;1.67;1.58;;;15.80;99.90;;;;;;5048887;28;20108;-74
2022/09/15 08:21:51;;;;;;;2.10;1.90;;;15.90;99.90;;;;;;5053717;28;20032;-75
2022/09/15 08:24:17;;;;;;;1.98;1.80;;;16.00;99.90;;;;;;5053703;28;20029;-74
2022/09/15 08:26:42;;;;;;;3.38;2.47;;;16.10;99.90;;;;;;5052401;28;20013;-74
2022/09/15 08:29:08;;;;;;;2.40;2.20;;;16.20;99.90;;;;;;5053605;28;20588;-74
2022/09/15 08:31:34;;;;;;;2.20;2.08;;;16.20;99.90;;;;;;5053519;28;20021;-74
2022/09/15 08:34:02;;;;;;;2.35;2.10;;;16.30;99.90;;;;;;5053504;28;20029;-73
2022/09/15 08:36:29;;;;;;;2.33;2.15;;;16.40;99.90;;;;;;5053368;28;20066;-73
2022/09/15 08:38:55;;;;;;;2.53;2.33;;;16.40;99.90;;;;;;5052089;28;20036;-74
2022/09/15 08:41:22;;;;;;;2.83;2.38;;;16.30;99.90;;;;;;5053426;28;20017;-74
2022/09/15 08:44:09;;;;;;;3.28;2.97;;;16.30;99.90;;;;;;5053427;28;20120;-74
2022/09/15 08:46:43;;;;;;;3.45;2.80;;;16.40;99.90;;;;;;5038319;28;20044;-74
2022/09/15 08:49:28;;;;;;;3.40;3.10;;;16.30;99.90;;;;;;5033508;28;20026;-73
2022/09/15 08:51:58;;;;;;;3.50;3.20;;;16.20;99.90;;;;;;5033231;28;20021;-73
2022/09/15 08:54:26;;;;;;;3.58;3.25;;;16.20;99.90;;;;;;5033821;28;20071;-73
2022/09/15 08:56:54;;;;;;;3.67;3.22;;;16.10;99.90;;;;;;5033367;28;20021;-73
2022/09/15 08:59:20;;;;;;;4.57;3.55;;;16.00;99.90;;;;;;5033064;28;20050;-74
2022/09/15 09:02:10;;;;;;;3.65;3.10;;;16.00;99.90;;;;;;5031987;28;20029;-75
2022/09/15 09:04:59;;;;;;;3.80;3.28;;;15.90;99.90;;;;;;5033146;28;20021;-73
2022/09/15 09:07:55;;;;;;;3.55;3.25;;;15.90;99.90;;;;;;5036054;28;20410;-73
2022/09/15 09:10:24;;;;;;;3.22;2.83;;;16.00;99.90;;;;;;5033151;28;20026;-75
2022/09/15 09:13:00;;;;;;;3.08;2.88;;;16.00;99.90;;;;;;5032991;28;20482;-74
2022/09/15 09:15:32;;;;;;;3.30;3.03;;;16.00;99.90;;;;;;5031766;28;20037;-73
2022/09/15 09:18:16;;;;;;;3.63;3.20;;;16.00;99.90;;;;;;5036387;28;20514;-75
2022/09/15 09:20:44;;;;;;;3.05;2.72;;;16.10;99.90;;;;;;5052878;28;20489;-73
2022/09/15 09:23:13;;;;;;;4.20;3.30;;;16.20;99.90;;;;;;5052885;28;20070;-74
2022/09/15 09:25:41;;;;;;;3.58;3.17;;;16.30;99.90;;;;;;5052758;28;20363;-74
2022/09/15 09:28:26;;;;;;;3.25;2.70;;;16.50;99.90;;;;;;5052221;28;20470;-74
2022/09/15 09:30:52;;;;;;;3.10;2.90;;;16.60;99.90;;;;;;5052658;28;20108;-74
2022/09/15 09:33:35;;;;;;;2.67;2.47;;;16.70;99.90;;;;;;5052603;28;20036;-74
2022/09/15 09:36:02;;;;;;;3.20;2.75;;;16.80;99.90;;;;;;5052671;28;20077;-75
2022/09/15 09:38:34;;;;;;;5.15;3.83;;;16.90;99.90;;;;;;5052319;28;20025;-74
2022/09/15 09:41:00;;;;;;;4.37;3.97;;;16.90;99.90;;;;;;5051400;28;20025;-74
2022/09/15 09:43:28;;;;;;;4.43;4.03;;;16.90;99.90;;;;;;5052420;28;20056;-73
2022/09/15 09:45:54;;;;;;;3.53;3.22;;;16.80;99.90;;;;;;5044134;28;20026;-73
2022/09/15 09:48:22;;;;;;;4.15;3.75;;;16.80;99.90;;;;;;5031216;28;20112;-73
2022/09/15 09:50:49;;;;;;;4.65;3.80;;;16.80;99.90;;;;;;5032338;27;20061;-74
2022/09/15 09:53:29;;;;;;;3.40;3.17;;;16.70;99.90;;;;;;5032362;28;20022;-73
2022/09/15 09:56:16;;;;;;;5.57;3.72;;;16.80;99.90;;;;;;5032358;28;20033;-75
2022/09/15 09:58:43;;;;;;;3.10;2.83;;;16.90;99.90;;;;;;5030851;28;20046;-74
2022/09/15 10:01:11;;;;;;;3.47;3.00;;;17.00;99.90;;;;;;5032356;28;20391;-75
2022/09/15 10:03:37;;;;;;;3.45;3.15;;;17.00;99.90;;;;;;5030914;28;20056;-73
2022/09/15 10:06:20;;;;;;;5.70;3.47;;;17.00;99.90;;;;;;5030982;28;20021;-74
2022/09/15 10:09:08;;;;;;;4.32;3.38;;;16.90;99.90;;;;;;5032242;28;20033;-73
2022/09/15 10:11:45;;;;;;;3.90;3.20;;;16.80;99.90;;;;;;5032223;28;20044;-74
2022/09/15 10:14:35;;;;;;;3.25;2.95;;;16.80;99.90;;;;;;5031923;28;20076;-73
2022/09/15 10:17:08;;;;;;;5.63;2.58;;;16.60;99.90;;;;;;5032170;28;20028;-73
2022/09/15 10:19:45;;;;;;;3.13;2.50;;;16.60;99.90;;;;;;5047631;28;20017;-74
2022/09/15 10:22:34;;;;;;;3.03;2.50;;;16.60;99.90;;;;;;5050700;28;20025;-73
2022/09/15 10:25:02;;;;;;;3.17;2.45;;;16.60;99.90;;;;;;5051903;28;20090;-73
2022/09/15 10:27:33;;;;;;;3.47;2.83;;;16.70;99.90;;;;;;5051431;28;20025;-75
2022/09/15 10:30:19;;;;;;;3.25;2.40;;;16.80;99.90;;;;;;5050457;28;20025;-73
2022/09/15 10:32:45;;;;;;;3.42;2.75;;;16.90;99.90;;;;;;5051493;28;20037;-74
2022/09/15 10:35:19;;;;;;;3.38;2.70;;;16.90;99.90;;;;;;5051587;28;20033;-73
2022/09/15 10:38:07;;;;;;;4.43;3.30;;;17.10;99.90;;;;;;5051600;28;20112;-74
2022/09/15 10:40:45;;;;;;;2.85;2.65;;;17.30;99.90;;;;;;5050429;28;20029;-73
2022/09/15 10:43:19;;;;;;;4.28;3.00;;;17.40;99.90;;;;;;5051485;28;20025;-73
2022/09/15 10:45:52;;;;;;;3.95;3.28;;;17.50;99.90;;;;;;5044193;28;20033;-73
2022/09/15 10:48:43;;;;;;;4.25;3.80;;;17.50;99.90;;;;;;5030847;28;20018;-74
2022/09/15 10:51:33;;;;;;;3.95;3.58;;;17.50;99.90;;;;;;5031363;28;20025;-74
2022/09/15 10:54:14;;;;;;;5.28;3.53;;;17.60;99.90;;;;;;5037908;28;20030;-74
2022/09/15 10:56:48;;;;;;;3.85;3.55;;;17.80;99.90;;;;;;5038932;27;20510;-73
2022/09/15 10:59:32;;;;;;;4.80;4.00;;;17.90;99.90;;;;;;5048736;28;20053;-73
2022/09/15 11:02:04;;;;;;;3.92;3.58;;;18.10;99.90;;;;;;5048384;28;20084;-73
2022/09/15 11:04:57;;;;;;;5.57;4.20;;;18.20;99.90;;;;;;5036340;28;20021;-73
2022/09/15 11:07:29;;;;;;;;;;;18.10;99.90;;;;;;5046826;28;20486;-73
2022/09/15 11:10:11;;;;;;;3.47;3.13;;;18.10;99.90;;;;;;5049659;28;20000;-73
2022/09/15 11:12:48;;;;;;;5.15;4.53;;;18.10;99.90;;;;;;5052583;27;20491;-73
2022/09/15 11:15:26;;;;;;;5.25;4.68;;;18.20;99.90;;;;;;5049528;28;20037;-73
2022/09/15 11:18:03;;;;;;;3.40;3.10;;;18.30;99.90;;;;;;5046437;27;20037;-73
2022/09/15 11:20:43;;;;;;;3.78;3.22;;;18.30;99.90;;;;;;5047756;28;20029;-73
2022/09/15 11:23:20;;;;;;;4.90;3.80;;;18.40;99.90;;;;;;5049634;28;20097;-73
2022/09/15 11:25:51;;;;;;;4.15;3.72;;;18.40;99.90;;;;;;5049534;27;20104;-73
2022/09/15 11:28:24;;;;;;;5.63;4.35;;;18.30;99.90;;;;;;5047923;28;20027;-73
2022/09/15 11:30:59;;;;;;;5.22;4.28;;;18.20;99.90;;;;;;5049284;27;20021;-73
2022/09/15 11:33:43;;;;;;;5.90;5.40;;;18.10;99.90;;;;;;5049202;28;20104;-73
2022/09/15 11:36:17;;;;;;;13.00;8.85;;;18.00;99.90;;;;;;5046862;28;20025;-73
2022/09/15 11:39:10;;;;;;;10.07;7.78;;;17.90;99.90;;;;;;5049314;28;20028;-73
2022/09/15 11:41:42;;;;;;;15.10;11.25;;;17.70;99.90;;;;;;5048946;27;20124;-73
2022/09/15 11:44:17;;;;;;;12.60;10.20;;;17.70;99.90;;;;;;5042055;28;20025;-74
2022/09/15 11:47:03;;;;;;;19.70;14.23;;;17.60;99.90;;;;;;5044876;27;20561;-73
2022/09/15 11:49:59;;;;;;;21.65;16.50;;;17.60;99.90;;;;;;5047122;28;20510;-73
2022/09/15 11:52:56;;;;;;;19.00;14.27;;;17.50;99.90;;;;;;5047088;28;20039;-72
2022/09/15 11:55:42;;;;;;;24.13;16.42;;;17.60;99.90;;;;;;5044851;28;20037;-73
2022/09/15 11:58:17;;;;;;;18.45;13.73;;;17.60;99.90;;;;;;5047867;28;20112;-73
2022/09/15 12:01:09;;;;;;;23.80;18.05;;;17.80;99.90;;;;;;5111251;28;20071;-73
2022/09/15 12:03:49;;;;;;;19.35;12.82;;;17.90;99.90;;;;;;5102268;28;20040;-73
2022/09/15 12:06:25;;;;;;;27.48;18.70;;;17.90;99.90;;;;;;5105368;27;20044;-73
2022/09/15 12:08:57;;;;;;;16.00;12.52;;;18.10;99.90;;;;;;5113405;28;20016;-73
2022/09/15 12:11:26;;;;;;;18.20;13.38;;;18.10;99.90;;;;;;5113340;28;20020;-73
2022/09/15 12:13:53;;;;;;;14.18;10.65;;;18.10;99.90;;;;;;5111796;28;20035;-73
2022/09/15 12:16:20;;;;;;;23.25;15.38;;;18.10;99.90;;;;;;5113084;28;20020;-73
2022/09/15 12:19:01;;;;;;;17.48;10.65;;;18.10;99.90;;;;;;5113135;28;20024;-72
2022/09/15 12:21:32;;;;;;;10.60;8.30;;;18.10;99.90;;;;;;5113284;28;20020;-72
2022/09/15 12:24:03;;;;;;;10.80;8.90;;;18.00;99.90;;;;;;5111897;28;20380;-72
2022/09/15 12:26:31;;;;;;;11.38;8.95;;;18.00;99.90;;;;;;5113193;28;20027;-73
2022/09/15 12:29:03;;;;;;;11.02;9.35;;;18.10;99.90;;;;;;5113042;28;20020;-72
2022/09/15 12:31:36;;;;;;;17.50;12.30;;;18.10;99.90;;;;;;5113062;28;20034;-72
2022/09/15 12:34:35;;;;;;;22.92;16.63;;;18.00;99.90;;;;;;5111666;28;20020;-73
2022/09/15 12:37:14;;;;;;;15.88;10.85;;;18.10;99.90;;;;;;5112987;28;20027;-72
2022/09/15 12:39:46;;;;;;;13.50;10.90;;;18.00;99.90;;;;;;5112723;28;20055;-73
2022/09/15 12:42:14;;;;;;;25.35;18.48;;;18.00;99.90;;;;;;5113143;28;20029;-73
2022/09/15 12:44:52;;;;;;;11.82;9.70;;;18.10;99.90;;;;;;5112894;28;20094;-72
2022/09/15 12:47:27;;;;;;;16.20;12.57;;;18.10;99.90;;;;;;5092694;28;20024;-73
2022/09/15 12:49:57;;;;;;;14.82;12.07;;;18.10;99.90;;;;;;5092332;28;20121;-73
2022/09/15 12:52:24;;;;;;;19.17;12.63;;;18.10;99.90;;;;;;5092569;28;20040;-73
2022/09/15 12:54:54;;;;;;;16.35;12.90;;;18.00;99.90;;;;;;5104486;28;20036;-72
2022/09/15 12:57:28;;;;;;;15.02;10.68;;;17.90;99.90;;;;;;5110142;28;20019;-73